Acton, CA (93510)

5:58 PM PDT on July 27, 2016 (GMT -0700)
Bridle Path | | Change Station

Elev 2920 ft 34.48 °N, 118.17 °W | Updated 9 seconds ago

Clear
Clear
93.4 °F
Feels Like 89 °F
N
4.0
Wind Variable Wind from SW
Gusts 10.0 mph

Today
High -- | Low -- °F
--% Chance of Precip.
Yesterday
High -- | Low -- °F
Precip. -- in
Pressure 29.81 in
Visibility 10.0 miles
Clouds Clear
Heat Index 89 °F
Dew Point 44 °F
Humidity 18%
Rainfall 0.00 in
Snow Depth Not available.
6:00 AM 7:58 PM
Last Quarter, 38% visible
METAR KPMD 280053Z AUTO 24022G26KT 10SM CLR 37/08 A2992 RMK AO2 PK WND 24028/0004 SLP093 T03670083 $
Pressure 29.81 in
Visibility 10.0 miles
Clouds Clear
Heat Index 89 °F
Dew Point 44 °F
Humidity 18%
Rainfall 0.00 in
Snow Depth Not available.
6:00 AM 7:58 PM
Last Quarter, 38% visible
METAR KPMD 280053Z AUTO 24022G26KT 10SM CLR 37/08 A2992 RMK AO2 PK WND 24028/0004 SLP093 T03670083 $

10-Day Weather Forecast

Almanac

Astronomy

Jul. 27, 2016 Rise Set
Actual Time
Civil Twilight
Nautical Twilight
Astronomical Twilight
Moon
Length of Visible Light
Length of Day
Tomorrow will be .
, % of the Moon is Illuminated

Today's Extremes

State Highs State Lows

Community

WunderPhotos

Upload Photos

1,927,986 photos uploaded!

WunderBlog® & News

Nearby

Air Quality

  Air Quality AQ Index Pollutant
Not available.

Snow Depth

Station Depth Elevation

Earthquake Activity

City Distance Mag. Time & Date
Minimum magnitude displayed is 2.5.

Coastal Water Temperatures

Place Temperature

Stations

Nearby Weather Stations

Station Location Temp. Windchill Dew Point Humidity Wind Precip. Elev Updated Type
                   

Watches & Warnings

There are currently no watches in effect.